createdAt,value
2023-05-20T00:00:05.760Z,11.2733
2023-05-20T00:01:06.870Z,11.2946
2023-05-20T00:02:07.779Z,11.2899
2023-05-20T00:03:08.862Z,11.2587
2023-05-20T00:04:10.108Z,11.2579
2023-05-20T00:05:10.954Z,11.2447
2023-05-20T00:06:11.975Z,11.2264
2023-05-20T00:07:12.998Z,11.2045
2023-05-20T00:08:14.017Z,11.2190
2023-05-20T00:09:15.055Z,11.2004
2023-05-20T00:10:16.135Z,11.1780
2023-05-20T00:11:17.196Z,11.2036
2023-05-20T00:12:18.257Z,11.1950
2023-05-20T00:13:19.246Z,11.1695
2023-05-20T00:14:20.239Z,11.1962
2023-05-20T00:15:21.337Z,11.1930
2023-05-20T00:16:22.428Z,11.1985
2023-05-20T00:17:23.359Z,11.2069
2023-05-20T00:18:24.376Z,11.2240
2023-05-20T00:19:25.563Z,11.2114
2023-05-20T00:20:26.543Z,11.1909
2023-05-20T00:21:27.591Z,11.2051
2023-05-20T00:22:28.573Z,11.1942
2023-05-20T00:23:29.619Z,11.2123
2023-05-20T00:24:30.656Z,11.2092
2023-05-20T00:25:31.921Z,11.2069
2023-05-20T00:26:32.791Z,11.2427
2023-05-20T00:27:33.769Z,11.2365
2023-05-20T00:28:34.776Z,11.2123
2023-05-20T00:29:35.835Z,11.1683
2023-05-20T00:30:36.950Z,11.1845
2023-05-20T00:31:38.034Z,11.1671
2023-05-20T00:32:38.993Z,11.1714
2023-05-20T00:33:40.026Z,11.1921
2023-05-20T00:34:41.015Z,11.1359
2023-05-20T00:35:42.155Z,11.1022
2023-05-20T00:36:43.172Z,11.1153
2023-05-20T00:37:44.188Z,11.1357
2023-05-20T00:38:45.189Z,11.1291
2023-05-20T00:39:46.238Z,11.1067
2023-05-20T00:40:47.298Z,11.0810
2023-05-20T00:41:48.376Z,11.0927
2023-05-20T00:42:49.325Z,11.0781
2023-05-20T00:43:50.430Z,11.0504
2023-05-20T00:44:51.433Z,11.0755
2023-05-20T00:45:52.531Z,11.0537
2023-05-20T00:46:53.534Z,11.0077
2023-05-20T00:47:54.600Z,10.9820
2023-05-20T00:48:55.592Z,10.9738
2023-05-20T00:49:56.673Z,10.9769
2023-05-20T00:50:57.694Z,10.9569
2023-05-20T00:51:58.760Z,10.9721
2023-05-20T00:52:59.782Z,10.9917
2023-05-20T00:54:00.827Z,10.9822
2023-05-20T00:55:01.809Z,10.9777
2023-05-20T00:56:02.956Z,10.9604
2023-05-20T00:57:03.974Z,10.9648
2023-05-20T00:58:04.951Z,10.9060
2023-05-20T00:59:05.974Z,10.8986
2023-05-20T01:00:07.033Z,10.8996
2023-05-20T01:01:08.186Z,10.8912
2023-05-20T01:02:09.241Z,10.8873
2023-05-20T01:03:10.274Z,10.8785
2023-05-20T01:04:11.211Z,10.8316
2023-05-20T01:05:12.240Z,10.8271
2023-05-20T01:06:13.332Z,10.8117
2023-05-20T01:07:14.392Z,10.7963
2023-05-20T01:08:15.351Z,10.7928
2023-05-20T01:09:16.397Z,10.7657
2023-05-20T01:10:17.452Z,10.7598
2023-05-20T01:11:18.552Z,10.7723
2023-05-20T01:12:19.571Z,10.7493
2023-05-20T01:13:20.555Z,10.7534
2023-05-20T01:14:21.566Z,10.7339
2023-05-20T01:15:22.678Z,10.7296
2023-05-20T01:16:23.809Z,10.7314
2023-05-20T01:17:24.753Z,10.7277
2023-05-20T01:18:25.752Z,10.7088
2023-05-20T01:19:26.846Z,10.6940
2023-05-20T01:20:27.816Z,10.6885
2023-05-20T01:21:28.986Z,10.6874
2023-05-20T01:22:29.974Z,10.6649
2023-05-20T01:23:30.984Z,10.6392
2023-05-20T01:24:31.995Z,10.5763
2023-05-20T01:25:33.179Z,10.5248
2023-05-20T01:26:34.171Z,10.4851
2023-05-20T01:27:35.170Z,10.4280
2023-05-20T01:28:36.167Z,10.3750
2023-05-20T01:29:37.265Z,10.5151
2023-05-20T01:30:38.318Z,10.5170
2023-05-20T01:31:39.541Z,10.3925
2023-05-20T01:32:40.411Z,10.3586
2023-05-20T01:33:41.430Z,10.3689
2023-05-20T01:34:42.499Z,10.3140
2023-05-20T01:35:43.509Z,10.3050
2023-05-20T01:36:44.620Z,10.2625
2023-05-20T01:37:45.710Z,10.2002
2023-05-20T01:38:46.633Z,10.2125
2023-05-20T01:39:47.684Z,10.3142
2023-05-20T01:40:48.692Z,10.2372
2023-05-20T01:41:49.737Z,10.2302
2023-05-20T01:42:50.757Z,10.2900
2023-05-20T01:43:51.784Z,10.3235
2023-05-20T01:44:52.792Z,10.3009
2023-05-20T01:45:53.815Z,10.1823
2023-05-20T01:46:54.946Z,10.1380
2023-05-20T01:47:55.939Z,10.1152
2023-05-20T01:48:56.936Z,10.1454
2023-05-20T01:49:57.979Z,10.1045
2023-05-20T01:50:59.006Z,10.0540
2023-05-20T01:52:00.012Z,10.1593
2023-05-20T01:53:01.137Z,10.1657
2023-05-20T01:54:02.128Z,10.0731
2023-05-20T01:55:03.198Z,10.0979
2023-05-20T01:56:04.197Z,10.2154
2023-05-20T01:57:05.235Z,10.2838
2023-05-20T01:58:06.270Z,10.2156
2023-05-20T01:59:07.311Z,10.2201
2023-05-20T02:00:08.366Z,10.1349
2023-05-20T02:01:09.395Z,10.1745
2023-05-20T02:02:10.421Z,10.0936
2023-05-20T02:03:11.455Z,10.0634
2023-05-20T02:04:12.511Z,10.0069
2023-05-20T02:05:13.581Z,10.1043
2023-05-20T02:06:14.575Z,10.1304
2023-05-20T02:07:15.597Z,10.0242
2023-05-20T02:08:16.635Z,10.0170
2023-05-20T02:09:17.709Z,10.1160
2023-05-20T02:10:18.773Z,10.2074
2023-05-20T02:11:19.751Z,10.1189
2023-05-20T02:12:20.823Z,10.1445
2023-05-20T02:13:21.835Z,10.1756
2023-05-20T02:14:22.920Z,10.1456
2023-05-20T02:15:23.955Z,10.1466
2023-05-20T02:16:25.027Z,10.2208
2023-05-20T02:17:25.999Z,10.1780
2023-05-20T02:18:27.058Z,10.1263
2023-05-20T02:19:28.208Z,10.0979
2023-05-20T02:20:29.173Z,10.0396
2023-05-20T02:21:30.126Z,9.9593
2023-05-20T02:22:31.209Z,9.8872
2023-05-20T02:23:32.238Z,9.8405
2023-05-20T02:24:33.337Z,9.7738
2023-05-20T02:25:34.547Z,9.7130
2023-05-20T02:26:35.338Z,9.7000
2023-05-20T02:27:36.381Z,9.6774
2023-05-20T02:28:37.417Z,9.6924
2023-05-20T02:29:38.453Z,9.7633
2023-05-20T02:30:39.540Z,9.9227
2023-05-20T02:31:40.517Z,9.9745
2023-05-20T02:32:41.645Z,10.0197
2023-05-20T02:33:42.647Z,9.9856
2023-05-20T02:34:43.683Z,9.9330
2023-05-20T02:35:44.711Z,9.8935
2023-05-20T02:36:45.770Z,9.8913
2023-05-20T02:37:46.745Z,9.8142
2023-05-20T02:38:47.808Z,9.7859
2023-05-20T02:39:48.823Z,9.8182
2023-05-20T02:40:49.923Z,9.7830
2023-05-20T02:41:50.939Z,9.7405
2023-05-20T02:42:51.964Z,9.6912
2023-05-20T02:43:52.978Z,9.6719
2023-05-20T02:44:54.022Z,9.6058
2023-05-20T02:45:55.077Z,9.5199
2023-05-20T02:46:56.145Z,9.4575
2023-05-20T02:47:57.172Z,9.3907
2023-05-20T02:48:58.203Z,9.3780
2023-05-20T02:49:59.231Z,9.3278
2023-05-20T02:51:00.335Z,9.3404
2023-05-20T02:52:01.364Z,9.2851
2023-05-20T02:53:02.389Z,9.2140
2023-05-20T02:54:03.380Z,9.2288
2023-05-20T02:55:04.474Z,9.2034
2023-05-20T02:56:05.535Z,9.2106
2023-05-20T02:57:06.603Z,9.2512
2023-05-20T02:58:07.539Z,9.3007
2023-05-20T02:59:08.640Z,9.2829
2023-05-20T03:00:09.656Z,9.2654
2023-05-20T03:01:10.729Z,9.2911
2023-05-20T03:02:11.727Z,9.3141
2023-05-20T03:03:12.795Z,9.3566
2023-05-20T03:04:13.820Z,9.3404
2023-05-20T03:05:14.894Z,9.4310
2023-05-20T03:06:15.903Z,9.4182
2023-05-20T03:07:16.975Z,9.4375
2023-05-20T03:08:17.994Z,9.4839
2023-05-20T03:09:19.003Z,9.4981
2023-05-20T03:10:20.026Z,9.4852
2023-05-20T03:11:21.036Z,9.4893
2023-05-20T03:12:22.146Z,9.5166
2023-05-20T03:13:23.155Z,9.5482
2023-05-20T03:14:24.175Z,9.5450
2023-05-20T03:15:25.216Z,9.5238
2023-05-20T03:16:26.300Z,9.5848
2023-05-20T03:17:27.296Z,9.7196
2023-05-20T03:18:28.380Z,9.7797
2023-05-20T03:19:29.410Z,9.8336
2023-05-20T03:20:30.414Z,9.7686
2023-05-20T03:21:31.442Z,9.7707
2023-05-20T03:22:32.515Z,9.7011
2023-05-20T03:23:33.527Z,9.7204
2023-05-20T03:24:34.615Z,9.7721
2023-05-20T03:25:35.744Z,9.7495
2023-05-20T03:26:36.634Z,9.7278
2023-05-20T03:27:37.715Z,9.7280
2023-05-20T03:28:38.735Z,9.6752
2023-05-20T03:29:39.714Z,9.6292
2023-05-20T03:30:40.784Z,9.6688
2023-05-20T03:31:41.891Z,9.6107
2023-05-20T03:32:42.898Z,9.5493
2023-05-20T03:33:43.897Z,9.5435
2023-05-20T03:34:44.942Z,9.4827
2023-05-20T03:35:45.942Z,9.4626
2023-05-20T03:36:47.029Z,9.4687
2023-05-20T03:37:48.033Z,9.4386
2023-05-20T03:38:49.122Z,9.4862
2023-05-20T03:39:50.112Z,9.4459
2023-05-20T03:40:51.180Z,9.4648
2023-05-20T03:41:52.199Z,9.4796
2023-05-20T03:42:53.296Z,9.4482
2023-05-20T03:43:54.312Z,9.3771
2023-05-20T03:44:55.337Z,9.3221
2023-05-20T03:45:56.323Z,9.2822
2023-05-20T03:46:57.484Z,9.2831
2023-05-20T03:47:58.484Z,9.2586
2023-05-20T03:48:59.493Z,9.2707
2023-05-20T03:50:00.488Z,9.3285
2023-05-20T03:51:01.540Z,9.4170
2023-05-20T03:52:02.550Z,9.4979
2023-05-20T03:53:03.650Z,9.5793
2023-05-20T03:54:04.670Z,9.6429
2023-05-20T03:55:05.714Z,9.7054
2023-05-20T03:56:06.712Z,9.7372
2023-05-20T03:57:07.783Z,9.7549
2023-05-20T03:58:08.828Z,9.7198
2023-05-20T03:59:09.861Z,9.6881
2023-05-20T04:00:10.880Z,9.6639
2023-05-20T04:01:11.939Z,9.6536
2023-05-20T04:02:12.990Z,9.5509
2023-05-20T04:03:14.103Z,9.6025
2023-05-20T04:04:15.236Z,9.6117
2023-05-20T04:05:16.062Z,9.6130
2023-05-20T04:06:17.122Z,9.5708
2023-05-20T04:07:18.172Z,9.6012
2023-05-20T04:08:19.242Z,9.6195
2023-05-20T04:09:20.271Z,9.6427
2023-05-20T04:10:21.272Z,9.6731
2023-05-20T04:11:22.331Z,9.7962
2023-05-20T04:12:23.353Z,9.8157
2023-05-20T04:13:24.394Z,9.8981
2023-05-20T04:14:25.432Z,9.9578
2023-05-20T04:15:26.497Z,10.0340
2023-05-20T04:16:27.535Z,10.0626
2023-05-20T04:17:28.563Z,10.0757
2023-05-20T04:18:29.618Z,10.0153
2023-05-20T04:19:30.714Z,9.9593
2023-05-20T04:20:31.682Z,9.9211
2023-05-20T04:21:32.726Z,9.9032
2023-05-20T04:22:33.727Z,9.9324
2023-05-20T04:23:34.831Z,9.9685
2023-05-20T04:24:35.813Z,9.9722
2023-05-20T04:25:37.094Z,9.9346
2023-05-20T04:26:37.851Z,9.9804
2023-05-20T04:27:38.912Z,9.9165
2023-05-20T04:28:39.951Z,9.9297
2023-05-20T04:29:41.035Z,9.9213
2023-05-20T04:30:42.000Z,9.9237
2023-05-20T04:31:43.090Z,9.9254
2023-05-20T04:32:44.119Z,9.9568
2023-05-20T04:33:45.172Z,9.9691
2023-05-20T04:34:46.197Z,10.0047
2023-05-20T04:35:47.260Z,10.0408
2023-05-20T04:36:48.222Z,10.0955
2023-05-20T04:37:49.300Z,10.1263
2023-05-20T04:38:50.339Z,10.1098
2023-05-20T04:39:51.416Z,10.1322
2023-05-20T04:40:52.410Z,10.1682
2023-05-20T04:41:53.453Z,10.2197
2023-05-20T04:42:54.441Z,10.2536
2023-05-20T04:43:55.557Z,10.3025
2023-05-20T04:44:56.551Z,10.3189
2023-05-20T04:45:57.625Z,10.3052
2023-05-20T04:46:58.594Z,10.4036
2023-05-20T04:47:59.696Z,10.4032
2023-05-20T04:49:00.680Z,10.4093
2023-05-20T04:50:01.784Z,10.4186
2023-05-20T04:51:02.813Z,10.4225
2023-05-20T04:52:03.792Z,10.4944
2023-05-20T04:53:04.818Z,10.5488
2023-05-20T04:54:05.883Z,10.5749
2023-05-20T04:55:06.912Z,10.5745
2023-05-20T04:56:07.972Z,10.5548
2023-05-20T04:57:08.986Z,10.5732
2023-05-20T04:58:10.031Z,10.5724
2023-05-20T04:59:11.058Z,10.6334
2023-05-20T05:00:12.144Z,10.6390
2023-05-20T05:01:13.237Z,10.6776
2023-05-20T05:02:14.187Z,10.6745
2023-05-20T05:03:15.225Z,10.7070
2023-05-20T05:04:16.297Z,10.6920
2023-05-20T05:05:17.315Z,10.6564
2023-05-20T05:06:18.374Z,10.6301
2023-05-20T05:07:19.393Z,10.6410
2023-05-20T05:08:20.447Z,10.6215
2023-05-20T05:09:21.441Z,10.5903
2023-05-20T05:10:22.512Z,10.6168
2023-05-20T05:11:23.561Z,10.6242
2023-05-20T05:12:24.625Z,10.6531
2023-05-20T05:13:25.617Z,10.6803
2023-05-20T05:14:26.675Z,10.6242
2023-05-20T05:15:27.694Z,10.6024
2023-05-20T05:16:28.815Z,10.7170
2023-05-20T05:17:29.837Z,10.7341
2023-05-20T05:18:30.801Z,10.7415
2023-05-20T05:19:31.855Z,10.7133
2023-05-20T05:20:32.878Z,10.6907
2023-05-20T05:21:33.956Z,10.6143
2023-05-20T05:22:34.996Z,10.5806
2023-05-20T05:23:36.034Z,10.5486
2023-05-20T05:24:37.014Z,10.5790
2023-05-20T05:25:38.075Z,10.6188
2023-05-20T05:26:39.132Z,10.6509
2023-05-20T05:27:40.206Z,10.6328
2023-05-20T05:28:41.183Z,10.6661
2023-05-20T05:29:42.302Z,10.7448
2023-05-20T05:30:43.322Z,10.7220
2023-05-20T05:31:44.419Z,10.7433
2023-05-20T05:32:45.551Z,10.8688
2023-05-20T05:33:46.494Z,10.9070
2023-05-20T05:34:47.523Z,10.9500
2023-05-20T05:35:48.556Z,11.0307
2023-05-20T05:36:49.576Z,11.0627
2023-05-20T05:37:50.700Z,10.9668
2023-05-20T05:38:51.694Z,10.9787
2023-05-20T05:39:52.700Z,11.0180
2023-05-20T05:40:53.715Z,11.0958
2023-05-20T05:41:54.773Z,11.1036
2023-05-20T05:42:55.867Z,11.0744
2023-05-20T05:43:56.894Z,11.0656
2023-05-20T05:44:57.873Z,10.9876
2023-05-20T05:45:58.942Z,10.9939
2023-05-20T05:46:59.963Z,11.0535
2023-05-20T05:48:01.123Z,11.0523
2023-05-20T05:49:02.072Z,11.0545
2023-05-20T05:50:03.069Z,11.1147
2023-05-20T05:51:04.098Z,11.1509
2023-05-20T05:52:05.179Z,11.1601
2023-05-20T05:53:06.194Z,11.2156
2023-05-20T05:54:07.283Z,11.2439
2023-05-20T05:55:08.257Z,11.2449
2023-05-20T05:56:09.337Z,11.2819
2023-05-20T05:57:10.342Z,11.3620
2023-05-20T05:58:11.432Z,11.3579
2023-05-20T05:59:12.434Z,11.4692
2023-05-20T06:00:13.491Z,11.4953
2023-05-20T06:01:14.528Z,11.4423
2023-05-20T06:02:15.626Z,11.5415
2023-05-20T06:03:16.731Z,11.6531
2023-05-20T06:04:17.722Z,11.6026
2023-05-20T06:05:18.654Z,11.7289
2023-05-20T06:06:19.691Z,11.7737
2023-05-20T06:07:20.717Z,11.7213
2023-05-20T06:08:21.821Z,11.7971
2023-05-20T06:09:22.817Z,11.8801
2023-05-20T06:10:23.896Z,11.8373
2023-05-20T06:11:24.913Z,11.8427
2023-05-20T06:12:26.024Z,11.8811
2023-05-20T06:13:27.012Z,11.8866
2023-05-20T06:14:28.050Z,11.6985
2023-05-20T06:15:29.069Z,11.6305
2023-05-20T06:16:30.212Z,11.8028
2023-05-20T06:17:31.162Z,11.7472
2023-05-20T06:18:32.240Z,11.7724
2023-05-20T06:19:33.397Z,11.7274
2023-05-20T06:20:34.301Z,11.8468
2023-05-20T06:21:35.319Z,11.8698
2023-05-20T06:22:36.390Z,11.9072
2023-05-20T06:23:37.565Z,11.8404
2023-05-20T06:24:38.510Z,11.8078
2023-05-20T06:25:39.493Z,11.8427
2023-05-20T06:26:40.554Z,11.8281
2023-05-20T06:27:41.582Z,11.8349
2023-05-20T06:28:42.683Z,11.8262
2023-05-20T06:29:44.011Z,11.8158
2023-05-20T06:30:44.814Z,11.8162
2023-05-20T06:31:45.906Z,11.8920
2023-05-20T06:32:46.973Z,11.9388
2023-05-20T06:33:47.954Z,11.9086
2023-05-20T06:34:49.027Z,11.8587
2023-05-20T06:35:49.992Z,11.9139
2023-05-20T06:36:51.016Z,11.9244
2023-05-20T06:37:52.157Z,12.0668
2023-05-20T06:38:53.175Z,12.0512
2023-05-20T06:39:54.220Z,12.0717
2023-05-20T06:40:55.177Z,12.1005
2023-05-20T06:41:56.305Z,12.1272
2023-05-20T06:42:57.272Z,12.1738
2023-05-20T06:43:58.450Z,12.1680
2023-05-20T06:44:59.443Z,12.1713
2023-05-20T06:46:00.424Z,12.1625
2023-05-20T06:47:01.469Z,12.2613
2023-05-20T06:48:02.577Z,12.2909
2023-05-20T06:49:03.551Z,12.2681
2023-05-20T06:50:04.551Z,12.1941
2023-05-20T06:51:05.546Z,12.2159
2023-05-20T06:52:06.576Z,12.2693
2023-05-20T06:53:07.717Z,12.2732
2023-05-20T06:54:08.729Z,12.2917
2023-05-20T06:55:09.709Z,12.1305
2023-05-20T06:56:10.713Z,12.1341
2023-05-20T06:57:11.775Z,12.1814
2023-05-20T06:58:12.802Z,12.2235
2023-05-20T06:59:13.908Z,12.2615
2023-05-20T07:00:14.954Z,12.2420
2023-05-20T07:01:17.925Z,12.3361
2023-05-20T07:02:17.053Z,12.3650
2023-05-20T07:03:18.013Z,12.2808
2023-05-20T07:04:19.022Z,12.2767
2023-05-20T07:05:20.026Z,12.2874
2023-05-20T07:06:21.217Z,12.3254
2023-05-20T07:07:22.049Z,12.2116
2023-05-20T07:08:23.112Z,12.1654
2023-05-20T07:09:24.303Z,12.1832
2023-05-20T07:10:25.206Z,12.2658
2023-05-20T07:11:26.241Z,12.3404
2023-05-20T07:12:27.271Z,12.3355
2023-05-20T07:13:28.280Z,12.3628
2023-05-20T07:14:29.384Z,12.3708
2023-05-20T07:15:30.417Z,12.3229
2023-05-20T07:16:31.539Z,12.3242
2023-05-20T07:17:32.501Z,12.4527
2023-05-20T07:18:33.546Z,12.5669
2023-05-20T07:19:34.578Z,12.6101
2023-05-20T07:20:35.615Z,12.4618
2023-05-20T07:21:36.598Z,12.5004
2023-05-20T07:22:37.698Z,12.5610
2023-05-20T07:23:38.685Z,12.5881
2023-05-20T07:24:39.792Z,12.5289
2023-05-20T07:25:40.816Z,12.5554
2023-05-20T07:26:41.845Z,12.6454
2023-05-20T07:27:42.855Z,12.6462
2023-05-20T07:28:43.896Z,12.6927
2023-05-20T07:29:44.962Z,12.6616
2023-05-20T07:30:45.985Z,12.6530
2023-05-20T07:31:47.052Z,12.6594
2023-05-20T07:32:48.118Z,12.6512
2023-05-20T07:33:49.075Z,12.7539
2023-05-20T07:34:50.400Z,12.7385
2023-05-20T07:35:51.199Z,12.6660
2023-05-20T07:36:52.229Z,12.8229
2023-05-20T07:37:53.258Z,12.8935
2023-05-20T07:39:03.167Z,12.8547
2023-05-20T07:39:55.340Z,12.9009
2023-05-20T07:40:56.423Z,12.8751
2023-05-20T07:41:57.401Z,12.8966
2023-05-20T07:42:58.447Z,12.8178
2023-05-20T07:43:59.495Z,12.8872
2023-05-20T07:45:00.600Z,12.9576
2023-05-20T07:46:01.587Z,13.0556
2023-05-20T07:47:02.609Z,13.1421
2023-05-20T07:48:03.685Z,13.0990
2023-05-20T07:49:04.693Z,13.0123
2023-05-20T07:50:05.730Z,12.9182
2023-05-20T07:51:06.771Z,13.0439
2023-05-20T07:52:07.818Z,13.0624
2023-05-20T07:53:08.812Z,12.9944
2023-05-20T07:54:09.841Z,12.8087
2023-05-20T07:55:10.952Z,12.8732
2023-05-20T07:56:11.943Z,12.9018
2023-05-20T07:57:12.988Z,13.0778
2023-05-20T07:58:14.016Z,13.1101
2023-05-20T07:59:15.013Z,12.8927
2023-05-20T08:00:16.098Z,13.0191
2023-05-20T08:01:17.124Z,12.9541
2023-05-20T08:02:18.232Z,13.0484
2023-05-20T08:03:19.326Z,13.1813
2023-05-20T08:04:20.254Z,13.2002
2023-05-20T08:05:21.276Z,13.2549
2023-05-20T08:06:22.314Z,13.2614
2023-05-20T08:07:23.296Z,13.3812
2023-05-20T08:08:24.401Z,13.3984
2023-05-20T08:09:25.380Z,13.4336
2023-05-20T08:10:26.459Z,13.5246
2023-05-20T08:11:27.538Z,13.5170
2023-05-20T08:12:28.615Z,13.3187
2023-05-20T08:13:29.544Z,13.2027
2023-05-20T08:14:30.575Z,13.0538
2023-05-20T08:15:31.761Z,13.0158
2023-05-20T08:16:32.752Z,13.1770
2023-05-20T08:17:33.713Z,13.2964
2023-05-20T08:18:34.765Z,13.2210
2023-05-20T08:19:35.861Z,13.2672
2023-05-20T08:20:36.849Z,13.3263
2023-05-20T08:21:37.865Z,13.3639
2023-05-20T08:22:38.916Z,13.3327
2023-05-20T08:23:40.644Z,13.2703
2023-05-20T08:24:41.010Z,13.2918
2023-05-20T08:25:42.025Z,13.1170
2023-05-20T08:26:43.097Z,13.2025
2023-05-20T08:27:44.084Z,13.3011
2023-05-20T08:28:45.145Z,13.2125
2023-05-20T08:29:46.152Z,13.2957
2023-05-20T08:30:47.334Z,13.3335
2023-05-20T08:31:48.239Z,13.3793
2023-05-20T08:32:49.320Z,13.4221
2023-05-20T08:33:50.262Z,13.4007
2023-05-20T08:34:51.312Z,13.4393
2023-05-20T08:35:52.372Z,13.4295
2023-05-20T08:36:53.412Z,13.5096
2023-05-20T08:37:54.421Z,13.4393
2023-05-20T08:38:55.455Z,13.4597
2023-05-20T08:39:56.558Z,13.3140
2023-05-20T08:40:57.565Z,13.2937
2023-05-20T08:41:58.598Z,13.1787
2023-05-20T08:42:59.823Z,13.2078
2023-05-20T08:44:00.665Z,13.2713
2023-05-20T08:45:01.682Z,13.2473
2023-05-20T08:46:02.771Z,13.2943
2023-05-20T08:47:03.843Z,13.3746
2023-05-20T08:48:04.809Z,13.4305
2023-05-20T08:49:05.835Z,13.6476
2023-05-20T08:50:06.845Z,13.6421
2023-05-20T08:51:07.929Z,13.7421
2023-05-20T08:52:08.983Z,13.6380
2023-05-20T08:53:09.969Z,13.6910
2023-05-20T08:54:10.994Z,13.6273
2023-05-20T08:55:12.057Z,13.3919
2023-05-20T08:56:13.074Z,13.2904
2023-05-20T08:57:14.186Z,13.2910
2023-05-20T08:58:15.133Z,13.3379
2023-05-20T08:59:16.199Z,13.4102
2023-05-20T09:00:17.285Z,13.4040
2023-05-20T09:01:18.343Z,13.4295
2023-05-20T09:02:19.339Z,13.3943
2023-05-20T09:03:20.382Z,13.3520
2023-05-20T09:04:21.414Z,13.3477
2023-05-20T09:05:22.433Z,13.4543
2023-05-20T09:06:23.505Z,13.3927
2023-05-20T09:07:24.549Z,13.4404
2023-05-20T09:08:25.528Z,13.4196
2023-05-20T09:09:26.581Z,13.4931
2023-05-20T09:10:27.606Z,13.5018
2023-05-20T09:11:28.713Z,13.6248
2023-05-20T09:12:29.703Z,13.7388
2023-05-20T09:13:30.694Z,13.8187
2023-05-20T09:14:31.823Z,13.8111
2023-05-20T09:15:33.102Z,13.9982
2023-05-20T09:16:33.931Z,13.7994
2023-05-20T09:17:34.959Z,13.9465
2023-05-20T09:18:35.896Z,13.9662
2023-05-20T09:19:37.033Z,13.9935
2023-05-20T09:20:37.962Z,13.8962
2023-05-20T09:21:39.034Z,13.8543
2023-05-20T09:22:40.061Z,13.8990
2023-05-20T09:23:41.135Z,13.8996
2023-05-20T09:24:42.127Z,13.9898
2023-05-20T09:25:43.143Z,14.0621
2023-05-20T09:26:44.185Z,13.9830
2023-05-20T09:27:45.247Z,13.9296
2023-05-20T09:28:46.258Z,13.9007
2023-05-20T09:29:47.324Z,13.8261
2023-05-20T09:30:48.400Z,13.7885
2023-05-20T09:31:49.465Z,13.7797
2023-05-20T09:32:50.515Z,13.7302
2023-05-20T09:33:51.490Z,13.7961
2023-05-20T09:34:52.601Z,13.9734
2023-05-20T09:35:53.521Z,14.0167
2023-05-20T09:36:54.571Z,14.0952
2023-05-20T09:37:55.688Z,14.2700
2023-05-20T09:38:56.778Z,14.2862
2023-05-20T09:39:57.638Z,14.6227
2023-05-20T09:40:58.706Z,14.7264
2023-05-20T09:42:00.537Z,14.8532
2023-05-20T09:43:00.837Z,14.5693
2023-05-20T09:44:01.808Z,14.6159
2023-05-20T09:45:02.842Z,14.5740
2023-05-20T09:46:03.879Z,14.6397
2023-05-20T09:47:07.000Z,14.7149
2023-05-20T09:48:06.037Z,14.5892
2023-05-20T09:49:07.015Z,14.6289
2023-05-20T09:50:07.996Z,14.4082
2023-05-20T09:51:09.086Z,14.5120
2023-05-20T09:52:10.064Z,14.9731
2023-05-20T09:53:11.217Z,15.0947
2023-05-20T09:54:12.150Z,15.1485
2023-05-20T09:55:13.210Z,15.0656
2023-05-20T09:56:14.190Z,15.1510
2023-05-20T09:57:15.233Z,14.9507
2023-05-20T09:58:16.534Z,14.8873
2023-05-20T09:59:17.434Z,14.8990
2023-05-20T10:00:18.351Z,15.1087
2023-05-20T10:01:19.416Z,15.3848
2023-05-20T10:02:20.554Z,15.5285
2023-05-20T10:03:21.740Z,15.4562
2023-05-20T10:04:22.493Z,15.3706
2023-05-20T10:05:23.569Z,15.1389
2023-05-20T10:06:24.706Z,14.8924
2023-05-20T10:07:40.626Z,14.8544
2023-05-20T10:08:26.685Z,14.8133
2023-05-20T10:09:27.860Z,14.7437
2023-05-20T10:10:28.721Z,14.7007
2023-05-20T10:11:29.731Z,14.7110
2023-05-20T10:12:30.748Z,14.7883
2023-05-20T10:13:31.813Z,14.9764
2023-05-20T10:14:32.866Z,14.9388
2023-05-20T10:15:34.225Z,14.8230
2023-05-20T10:16:34.905Z,14.9400
2023-05-20T10:17:35.956Z,14.9520
2023-05-20T10:18:37.018Z,14.7094
2023-05-20T10:19:38.055Z,14.5734
2023-05-20T10:20:39.038Z,14.6235
2023-05-20T10:21:40.038Z,14.6375
2023-05-20T10:22:41.368Z,14.6443
2023-05-20T10:23:42.284Z,14.6835
2023-05-20T10:24:43.205Z,14.7293
2023-05-20T10:25:44.197Z,14.7626
2023-05-20T10:26:45.240Z,14.9020
2023-05-20T10:27:46.300Z,14.8371
2023-05-20T10:28:47.366Z,14.8673
2023-05-20T10:30:49.413Z,14.9051
2023-05-20T10:31:50.442Z,14.7989
2023-05-20T10:32:51.532Z,14.9840
2023-05-20T10:33:52.488Z,14.9109
2023-05-20T10:34:53.577Z,14.9840
2023-05-20T10:35:54.536Z,15.0189
2023-05-20T10:36:55.612Z,14.9363
2023-05-20T10:37:56.642Z,14.9589
2023-05-20T10:38:57.715Z,14.8914
2023-05-20T10:39:58.721Z,14.9203
2023-05-20T10:40:59.798Z,15.0440
2023-05-20T10:42:00.745Z,15.2539
2023-05-20T10:43:01.792Z,15.2465
2023-05-20T10:44:02.884Z,15.2749
2023-05-20T10:45:03.922Z,15.0982
2023-05-20T10:46:07.552Z,14.9700
2023-05-20T10:47:24.461Z,15.0056
2023-05-20T10:48:07.036Z,14.9240
2023-05-20T10:49:08.194Z,14.9300
2023-05-20T10:50:09.114Z,15.0134
2023-05-20T10:51:10.115Z,14.9259
2023-05-20T10:52:11.140Z,14.9041
2023-05-20T10:53:21.653Z,15.0347
2023-05-20T10:54:13.234Z,15.1315
2023-05-20T10:55:14.281Z,15.2079
2023-05-20T10:56:15.344Z,15.1496
2023-05-20T10:57:16.296Z,15.0682
2023-05-20T10:58:17.375Z,15.0405
2023-05-20T10:59:18.418Z,15.0748
2023-05-20T11:00:19.688Z,15.0504
2023-05-20T11:01:20.575Z,15.2309
2023-05-20T11:02:21.545Z,15.1508
2023-05-20T11:03:22.773Z,15.2389
2023-05-20T11:04:23.591Z,15.2710
2023-05-20T11:05:24.636Z,15.3219
2023-05-20T11:06:25.707Z,15.2445
2023-05-20T11:07:26.691Z,15.3515
2023-05-20T11:08:29.439Z,15.4150
2023-05-20T11:09:28.739Z,15.3242
2023-05-20T11:10:29.859Z,15.2498
2023-05-20T11:11:30.854Z,15.3996
2023-05-20T11:12:31.960Z,15.4624
2023-05-20T11:13:32.966Z,15.4345
2023-05-20T11:14:34.082Z,15.3700
2023-05-20T11:15:34.993Z,15.3977
2023-05-20T11:16:36.089Z,15.2734
2023-05-20T11:17:37.171Z,15.2819
2023-05-20T11:18:38.109Z,15.3003
2023-05-20T11:19:39.152Z,15.4608
2023-05-20T11:20:40.173Z,15.5524
2023-05-20T11:21:41.260Z,15.4653
2023-05-20T11:22:42.288Z,15.4821
2023-05-20T11:23:43.377Z,15.4160
2023-05-20T11:24:44.346Z,15.3252
2023-05-20T11:25:45.422Z,15.3825
2023-05-20T11:26:46.407Z,15.5146
2023-05-20T11:27:47.487Z,15.4306
2023-05-20T11:28:48.494Z,15.5737
2023-05-20T11:29:49.513Z,15.4912
2023-05-20T11:30:50.532Z,15.4756
2023-05-20T11:31:51.631Z,15.4445
2023-05-20T11:32:52.773Z,15.4400
2023-05-20T11:33:53.700Z,15.5709
2023-05-20T11:34:54.681Z,15.7029
2023-05-20T11:35:55.722Z,15.6549
2023-05-20T11:36:56.729Z,15.6117
2023-05-20T11:37:57.817Z,15.6588
2023-05-20T11:38:58.878Z,15.6331
2023-05-20T11:39:59.867Z,15.6222
2023-05-20T11:41:00.903Z,15.8250
2023-05-20T11:42:01.949Z,15.7603
2023-05-20T11:43:03.010Z,15.8687
2023-05-20T11:44:04.053Z,15.7617
2023-05-20T11:45:05.044Z,15.7134
2023-05-20T11:46:06.115Z,15.6896
2023-05-20T11:47:07.098Z,15.7915
2023-05-20T11:48:08.229Z,15.7972
2023-05-20T11:49:09.229Z,15.8761
2023-05-20T11:50:10.246Z,15.9566
2023-05-20T11:51:11.254Z,15.9295
2023-05-20T11:52:12.294Z,15.9564
2023-05-20T11:53:13.312Z,15.9540
2023-05-20T11:54:14.421Z,15.8022
2023-05-20T11:55:15.442Z,15.8247
2023-05-20T11:56:16.433Z,15.8330
2023-05-20T11:57:17.455Z,15.8334
2023-05-20T11:58:18.549Z,15.9770
2023-05-20T11:59:19.554Z,16.1140
2023-05-20T12:00:20.623Z,16.0125
2023-05-20T12:01:23.161Z,16.0156
2023-05-20T12:02:22.741Z,15.9461
2023-05-20T12:03:23.815Z,15.7566
2023-05-20T12:04:24.897Z,15.7272
2023-05-20T12:05:25.776Z,15.9065
2023-05-20T12:06:26.819Z,15.9876
2023-05-20T12:07:27.805Z,15.9587
2023-05-20T12:08:28.849Z,16.0004
2023-05-20T12:09:29.902Z,16.0786
2023-05-20T12:10:30.951Z,15.9747
2023-05-20T12:11:31.959Z,16.0211
2023-05-20T12:12:32.989Z,16.0546
2023-05-20T12:13:35.364Z,16.0289
2023-05-20T12:14:35.073Z,16.1171
2023-05-20T12:15:36.121Z,15.9640
2023-05-20T12:16:37.217Z,15.8993
2023-05-20T12:17:38.161Z,16.0784
2023-05-20T12:18:39.197Z,16.2052
2023-05-20T12:19:41.888Z,16.1173
2023-05-20T12:20:41.316Z,16.0675
2023-05-20T12:21:42.294Z,16.2356
2023-05-20T12:22:43.328Z,16.0979